sensor_id;sensor_type;location;lat;lon;timestamp;temperature;humidity
56322;DHT22;42227;6.376;-10.782;2024-01-07T00:02:25;28.10;1.00
56322;DHT22;42227;6.376;-10.782;2024-01-07T00:04:53;28.20;1.00
56322;DHT22;42227;6.376;-10.782;2024-01-07T00:07:22;28.30;99.90
56322;DHT22;42227;6.376;-10.782;2024-01-07T00:09:51;28.20;99.90
56322;DHT22;42227;6.376;-10.782;2024-01-07T00:12:19;28.10;99.90
56322;DHT22;42227;6.376;-10.782;2024-01-07T00:14:49;28.10;99.90
56322;DHT22;42227;6.376;-10.782;2024-01-07T00:17:17;28.00;1.00
56322;DHT22;42227;6.376;-10.782;2024-01-07T00:19:46;28.10;1.00
56322;DHT22;42227;6.376;-10.782;2024-01-07T00:22:14;28.20;99.90
56322;DHT22;42227;6.376;-10.782;2024-01-07T00:24:43;28.20;99.90
56322;DHT22;42227;6.376;-10.782;2024-01-07T00:27:11;28.30;99.90
56322;DHT22;42227;6.376;-10.782;2024-01-07T00:29:40;28.20;99.90
56322;DHT22;42227;6.376;-10.782;2024-01-07T00:32:08;28.20;99.90
56322;DHT22;42227;6.376;-10.782;2024-01-07T00:34:37;28.30;99.90
56322;DHT22;42227;6.376;-10.782;2024-01-07T00:37:05;28.30;99.90
56322;DHT22;42227;6.376;-10.782;2024-01-07T00:39:34;28.40;99.90
56322;DHT22;42227;6.376;-10.782;2024-01-07T00:42:03;28.40;99.90
56322;DHT22;42227;6.376;-10.782;2024-01-07T00:44:32;28.40;94.60
56322;DHT22;42227;6.376;-10.782;2024-01-07T00:47:00;28.50;32.20
56322;DHT22;42227;6.376;-10.782;2024-01-07T00:49:28;28.40;1.00
56322;DHT22;42227;6.376;-10.782;2024-01-07T00:51:57;28.50;1.00
56322;DHT22;42227;6.376;-10.782;2024-01-07T00:54:25;28.50;1.00
56322;DHT22;42227;6.376;-10.782;2024-01-07T00:56:54;28.50;1.00
56322;DHT22;42227;6.376;-10.782;2024-01-07T00:59:22;28.40;1.00
56322;DHT22;42227;6.376;-10.782;2024-01-07T01:01:51;28.30;1.30
56322;DHT22;42227;6.376;-10.782;2024-01-07T01:04:20;28.20;63.40
56322;DHT22;42227;6.376;-10.782;2024-01-07T01:06:48;28.10;99.90
56322;DHT22;42227;6.376;-10.782;2024-01-07T01:09:17;28.20;99.90
56322;DHT22;42227;6.376;-10.782;2024-01-07T01:11:45;28.20;37.30
56322;DHT22;42227;6.376;-10.782;2024-01-07T01:14:14;28.00;99.90
56322;DHT22;42227;6.376;-10.782;2024-01-07T01:16:42;28.00;99.90
56322;DHT22;42227;6.376;-10.782;2024-01-07T01:19:11;27.90;99.90
56322;DHT22;42227;6.376;-10.782;2024-01-07T01:21:40;27.90;99.90
56322;DHT22;42227;6.376;-10.782;2024-01-07T01:24:08;27.90;99.90
56322;DHT22;42227;6.376;-10.782;2024-01-07T01:26:36;27.90;99.90
56322;DHT22;42227;6.376;-10.782;2024-01-07T01:29:05;27.80;99.90
56322;DHT22;42227;6.376;-10.782;2024-01-07T01:31:33;28.10;99.90
56322;DHT22;42227;6.376;-10.782;2024-01-07T01:34:02;28.20;99.90
56322;DHT22;42227;6.376;-10.782;2024-01-07T01:36:34;28.40;1.00
56322;DHT22;42227;6.376;-10.782;2024-01-07T01:39:02;28.50;1.00
56322;DHT22;42227;6.376;-10.782;2024-01-07T01:41:31;28.40;1.00
56322;DHT22;42227;6.376;-10.782;2024-01-07T01:44:00;28.50;1.00
56322;DHT22;42227;6.376;-10.782;2024-01-07T01:46:29;28.50;1.00
56322;DHT22;42227;6.376;-10.782;2024-01-07T01:48:59;28.40;1.00
56322;DHT22;42227;6.376;-10.782;2024-01-07T01:51:28;28.30;99.90
56322;DHT22;42227;6.376;-10.782;2024-01-07T01:53:56;28.30;99.90
56322;DHT22;42227;6.376;-10.782;2024-01-07T01:56:26;28.20;99.90
56322;DHT22;42227;6.376;-10.782;2024-01-07T01:58:55;28.20;99.90
56322;DHT22;42227;6.376;-10.782;2024-01-07T02:01:25;28.10;99.90
56322;DHT22;42227;6.376;-10.782;2024-01-07T02:03:53;28.10;99.90
56322;DHT22;42227;6.376;-10.782;2024-01-07T02:06:22;27.90;99.90
56322;DHT22;42227;6.376;-10.782;2024-01-07T02:08:51;27.70;1.00
56322;DHT22;42227;6.376;-10.782;2024-01-07T02:11:21;27.60;1.00
56322;DHT22;42227;6.376;-10.782;2024-01-07T02:13:50;27.50;99.90
56322;DHT22;42227;6.376;-10.782;2024-01-07T02:16:18;27.50;99.90
56322;DHT22;42227;6.376;-10.782;2024-01-07T02:18:47;27.40;99.90
56322;DHT22;42227;6.376;-10.782;2024-01-07T02:21:16;27.40;1.00
56322;DHT22;42227;6.376;-10.782;2024-01-07T02:23:44;27.40;76.10
56322;DHT22;42227;6.376;-10.782;2024-01-07T02:26:12;27.40;65.60
56322;DHT22;42227;6.376;-10.782;2024-01-07T02:28:41;27.50;1.00
56322;DHT22;42227;6.376;-10.782;2024-01-07T02:31:09;27.30;1.00
56322;DHT22;42227;6.376;-10.782;2024-01-07T02:33:38;27.30;1.00
56322;DHT22;42227;6.376;-10.782;2024-01-07T02:36:06;27.20;99.90
56322;DHT22;42227;6.376;-10.782;2024-01-07T02:38:35;27.20;99.90
56322;DHT22;42227;6.376;-10.782;2024-01-07T02:41:03;27.20;1.00
56322;DHT22;42227;6.376;-10.782;2024-01-07T02:43:32;27.30;1.00
56322;DHT22;42227;6.376;-10.782;2024-01-07T02:46:00;27.40;99.90
56322;DHT22;42227;6.376;-10.782;2024-01-07T02:48:29;27.50;99.90
56322;DHT22;42227;6.376;-10.782;2024-01-07T02:50:58;27.50;1.00
56322;DHT22;42227;6.376;-10.782;2024-01-07T02:53:26;27.40;1.00
56322;DHT22;42227;6.376;-10.782;2024-01-07T02:55:54;27.50;1.00
56322;DHT22;42227;6.376;-10.782;2024-01-07T02:58:22;27.50;1.00
56322;DHT22;42227;6.376;-10.782;2024-01-07T03:00:51;27.50;1.00
56322;DHT22;42227;6.376;-10.782;2024-01-07T03:03:20;27.50;1.00
56322;DHT22;42227;6.376;-10.782;2024-01-07T03:05:48;27.30;34.80
56322;DHT22;42227;6.376;-10.782;2024-01-07T03:08:17;27.40;99.90
56322;DHT22;42227;6.376;-10.782;2024-01-07T03:10:45;27.40;99.90
56322;DHT22;42227;6.376;-10.782;2024-01-07T03:13:14;27.40;99.90
56322;DHT22;42227;6.376;-10.782;2024-01-07T03:15:42;27.30;82.60
56322;DHT22;42227;6.376;-10.782;2024-01-07T03:18:10;27.20;99.90
56322;DHT22;42227;6.376;-10.782;2024-01-07T03:20:39;27.00;99.90
56322;DHT22;42227;6.376;-10.782;2024-01-07T03:23:07;27.00;1.00
56322;DHT22;42227;6.376;-10.782;2024-01-07T03:25:36;26.90;1.00
56322;DHT22;42227;6.376;-10.782;2024-01-07T03:28:04;26.90;31.60
56322;DHT22;42227;6.376;-10.782;2024-01-07T03:30:33;26.80;99.90
56322;DHT22;42227;6.376;-10.782;2024-01-07T03:33:01;26.80;99.90
56322;DHT22;42227;6.376;-10.782;2024-01-07T03:35:30;26.90;1.00
56322;DHT22;42227;6.376;-10.782;2024-01-07T03:37:58;27.00;99.90
56322;DHT22;42227;6.376;-10.782;2024-01-07T03:40:27;27.00;1.00
56322;DHT22;42227;6.376;-10.782;2024-01-07T03:42:55;26.90;1.00
56322;DHT22;42227;6.376;-10.782;2024-01-07T03:45:23;26.80;99.90
56322;DHT22;42227;6.376;-10.782;2024-01-07T03:47:52;26.80;99.90
56322;DHT22;42227;6.376;-10.782;2024-01-07T03:50:20;26.70;99.90
56322;DHT22;42227;6.376;-10.782;2024-01-07T03:52:49;26.80;1.00
56322;DHT22;42227;6.376;-10.782;2024-01-07T03:55:17;26.90;99.90
56322;DHT22;42227;6.376;-10.782;2024-01-07T03:57:46;26.90;99.90
56322;DHT22;42227;6.376;-10.782;2024-01-07T04:00:14;26.90;99.90
56322;DHT22;42227;6.376;-10.782;2024-01-07T04:02:43;26.90;99.90
56322;DHT22;42227;6.376;-10.782;2024-01-07T04:05:13;27.00;99.90
56322;DHT22;42227;6.376;-10.782;2024-01-07T04:07:41;27.00;99.90
56322;DHT22;42227;6.376;-10.782;2024-01-07T04:10:10;27.10;1.00
56322;DHT22;42227;6.376;-10.782;2024-01-07T04:12:38;27.20;99.90
56322;DHT22;42227;6.376;-10.782;2024-01-07T04:15:07;27.20;1.00
56322;DHT22;42227;6.376;-10.782;2024-01-07T04:17:35;27.10;99.90
56322;DHT22;42227;6.376;-10.782;2024-01-07T04:20:05;27.10;99.90
56322;DHT22;42227;6.376;-10.782;2024-01-07T04:22:34;27.10;99.90
56322;DHT22;42227;6.376;-10.782;2024-01-07T04:25:03;27.10;99.90
56322;DHT22;42227;6.376;-10.782;2024-01-07T04:27:31;26.90;99.90
56322;DHT22;42227;6.376;-10.782;2024-01-07T04:30:00;26.90;1.00
56322;DHT22;42227;6.376;-10.782;2024-01-07T04:32:29;26.80;99.90
56322;DHT22;42227;6.376;-10.782;2024-01-07T04:34:57;26.70;99.90
56322;DHT22;42227;6.376;-10.782;2024-01-07T04:37:26;26.60;99.90
56322;DHT22;42227;6.376;-10.782;2024-01-07T04:39:54;26.60;1.00
56322;DHT22;42227;6.376;-10.782;2024-01-07T04:42:23;26.50;95.70
56322;DHT22;42227;6.376;-10.782;2024-01-07T04:44:51;26.60;99.90
56322;DHT22;42227;6.376;-10.782;2024-01-07T04:47:28;26.70;99.90
56322;DHT22;42227;6.376;-10.782;2024-01-07T04:49:57;26.70;1.00
56322;DHT22;42227;6.376;-10.782;2024-01-07T04:52:26;26.60;1.00
56322;DHT22;42227;6.376;-10.782;2024-01-07T04:54:55;26.50;1.00
56322;DHT22;42227;6.376;-10.782;2024-01-07T04:57:24;26.50;36.10
56322;DHT22;42227;6.376;-10.782;2024-01-07T04:59:53;26.40;1.00
56322;DHT22;42227;6.376;-10.782;2024-01-07T05:02:21;26.50;99.90
56322;DHT22;42227;6.376;-10.782;2024-01-07T05:04:53;26.50;99.90
56322;DHT22;42227;6.376;-10.782;2024-01-07T05:07:21;26.60;99.90
56322;DHT22;42227;6.376;-10.782;2024-01-07T05:09:50;26.70;82.30
56322;DHT22;42227;6.376;-10.782;2024-01-07T05:12:18;26.80;1.00
56322;DHT22;42227;6.376;-10.782;2024-01-07T05:14:47;26.80;99.90
56322;DHT22;42227;6.376;-10.782;2024-01-07T05:17:15;26.70;99.90
56322;DHT22;42227;6.376;-10.782;2024-01-07T05:19:43;26.80;42.90
56322;DHT22;42227;6.376;-10.782;2024-01-07T05:22:12;26.80;99.90
56322;DHT22;42227;6.376;-10.782;2024-01-07T05:24:40;26.90;99.90
56322;DHT22;42227;6.376;-10.782;2024-01-07T05:27:09;27.00;1.00
56322;DHT22;42227;6.376;-10.782;2024-01-07T05:29:37;26.90;99.90
56322;DHT22;42227;6.376;-10.782;2024-01-07T05:32:06;26.90;1.00
56322;DHT22;42227;6.376;-10.782;2024-01-07T05:34:34;26.90;1.00
56322;DHT22;42227;6.376;-10.782;2024-01-07T05:37:03;26.80;1.00
56322;DHT22;42227;6.376;-10.782;2024-01-07T05:39:31;26.60;1.00
56322;DHT22;42227;6.376;-10.782;2024-01-07T05:42:00;26.50;99.90
56322;DHT22;42227;6.376;-10.782;2024-01-07T05:44:28;26.50;1.00
56322;DHT22;42227;6.376;-10.782;2024-01-07T05:46:56;26.40;4.40
56322;DHT22;42227;6.376;-10.782;2024-01-07T05:49:25;26.40;99.90
56322;DHT22;42227;6.376;-10.782;2024-01-07T05:51:53;26.40;99.90
56322;DHT22;42227;6.376;-10.782;2024-01-07T05:54:22;26.40;99.90
56322;DHT22;42227;6.376;-10.782;2024-01-07T05:56:51;26.50;1.00
56322;DHT22;42227;6.376;-10.782;2024-01-07T05:59:19;26.50;1.00
56322;DHT22;42227;6.376;-10.782;2024-01-07T06:01:48;26.50;99.90
56322;DHT22;42227;6.376;-10.782;2024-01-07T06:04:16;26.40;99.90
56322;DHT22;42227;6.376;-10.782;2024-01-07T06:06:45;26.30;99.90
56322;DHT22;42227;6.376;-10.782;2024-01-07T06:09:17;26.30;1.00
56322;DHT22;42227;6.376;-10.782;2024-01-07T06:11:46;26.10;72.10
56322;DHT22;42227;6.376;-10.782;2024-01-07T06:14:14;26.40;99.90
56322;DHT22;42227;6.376;-10.782;2024-01-07T06:16:43;26.70;99.90
56322;DHT22;42227;6.376;-10.782;2024-01-07T06:19:11;26.60;99.90
56322;DHT22;42227;6.376;-10.782;2024-01-07T06:21:40;26.30;1.00
56322;DHT22;42227;6.376;-10.782;2024-01-07T06:24:08;26.30;99.90
56322;DHT22;42227;6.376;-10.782;2024-01-07T06:26:37;26.50;99.90
56322;DHT22;42227;6.376;-10.782;2024-01-07T06:29:05;26.50;1.00
56322;DHT22;42227;6.376;-10.782;2024-01-07T06:31:34;26.50;1.00
56322;DHT22;42227;6.376;-10.782;2024-01-07T06:34:02;26.50;1.00
56322;DHT22;42227;6.376;-10.782;2024-01-07T06:36:31;26.50;1.00
56322;DHT22;42227;6.376;-10.782;2024-01-07T06:38:59;26.40;1.00
56322;DHT22;42227;6.376;-10.782;2024-01-07T06:41:27;26.50;1.00
56322;DHT22;42227;6.376;-10.782;2024-01-07T06:43:56;26.50;99.90
56322;DHT22;42227;6.376;-10.782;2024-01-07T06:46:24;26.30;1.00
56322;DHT22;42227;6.376;-10.782;2024-01-07T06:48:52;26.20;86.30
56322;DHT22;42227;6.376;-10.782;2024-01-07T06:51:21;26.20;99.90
56322;DHT22;42227;6.376;-10.782;2024-01-07T06:53:49;26.10;1.00
56322;DHT22;42227;6.376;-10.782;2024-01-07T06:56:18;26.00;1.00
56322;DHT22;42227;6.376;-10.782;2024-01-07T06:58:46;26.00;85.00
56322;DHT22;42227;6.376;-10.782;2024-01-07T07:01:19;26.00;99.90
56322;DHT22;42227;6.376;-10.782;2024-01-07T07:03:49;26.10;99.90
56322;DHT22;42227;6.376;-10.782;2024-01-07T07:06:17;26.30;99.90
56322;DHT22;42227;6.376;-10.782;2024-01-07T07:08:46;26.30;99.90
56322;DHT22;42227;6.376;-10.782;2024-01-07T07:11:15;26.10;1.00
56322;DHT22;42227;6.376;-10.782;2024-01-07T07:13:43;26.10;99.90
56322;DHT22;42227;6.376;-10.782;2024-01-07T07:16:12;26.10;91.50
56322;DHT22;42227;6.376;-10.782;2024-01-07T07:18:40;26.20;84.90
56322;DHT22;42227;6.376;-10.782;2024-01-07T07:21:09;26.30;39.20
56322;DHT22;42227;6.376;-10.782;2024-01-07T07:23:37;26.40;99.90
56322;DHT22;42227;6.376;-10.782;2024-01-07T07:26:05;26.50;1.00
56322;DHT22;42227;6.376;-10.782;2024-01-07T07:28:34;26.70;1.00
56322;DHT22;42227;6.376;-10.782;2024-01-07T07:31:02;26.70;49.40
56322;DHT22;42227;6.376;-10.782;2024-01-07T07:33:31;26.80;1.00
56322;DHT22;42227;6.376;-10.782;2024-01-07T07:35:59;26.90;1.00
56322;DHT22;42227;6.376;-10.782;2024-01-07T07:38:28;26.90;99.90
56322;DHT22;42227;6.376;-10.782;2024-01-07T07:40:56;26.90;1.00
56322;DHT22;42227;6.376;-10.782;2024-01-07T07:43:25;27.00;99.90
56322;DHT22;42227;6.376;-10.782;2024-01-07T07:45:53;27.20;99.90
56322;DHT22;42227;6.376;-10.782;2024-01-07T07:48:22;27.20;99.90
56322;DHT22;42227;6.376;-10.782;2024-01-07T07:50:50;27.30;99.90
56322;DHT22;42227;6.376;-10.782;2024-01-07T07:53:19;27.40;67.00
56322;DHT22;42227;6.376;-10.782;2024-01-07T07:55:47;27.50;1.00
56322;DHT22;42227;6.376;-10.782;2024-01-07T07:58:15;27.60;1.00
56322;DHT22;42227;6.376;-10.782;2024-01-07T08:00:44;27.60;1.00
56322;DHT22;42227;6.376;-10.782;2024-01-07T08:03:12;27.90;99.90
56322;DHT22;42227;6.376;-10.782;2024-01-07T08:05:41;28.00;99.90
56322;DHT22;42227;6.376;-10.782;2024-01-07T08:08:10;28.00;99.90
56322;DHT22;42227;6.376;-10.782;2024-01-07T08:10:38;28.10;99.90
56322;DHT22;42227;6.376;-10.782;2024-01-07T08:13:06;28.30;9.30
56322;DHT22;42227;6.376;-10.782;2024-01-07T08:15:35;28.40;1.00
56322;DHT22;42227;6.376;-10.782;2024-01-07T08:18:04;28.00;47.80
56322;DHT22;42227;6.376;-10.782;2024-01-07T08:20:33;27.80;99.90
56322;DHT22;42227;6.376;-10.782;2024-01-07T08:23:01;27.30;1.00
56322;DHT22;42227;6.376;-10.782;2024-01-07T08:25:30;27.40;99.90
56322;DHT22;42227;6.376;-10.782;2024-01-07T08:27:58;27.40;51.30
56322;DHT22;42227;6.376;-10.782;2024-01-07T08:30:27;27.40;99.90
56322;DHT22;42227;6.376;-10.782;2024-01-07T08:32:55;27.80;99.90
56322;DHT22;42227;6.376;-10.782;2024-01-07T08:35:24;28.80;33.70
56322;DHT22;42227;6.376;-10.782;2024-01-07T08:37:54;28.60;1.00
56322;DHT22;42227;6.376;-10.782;2024-01-07T08:40:22;28.50;1.00
56322;DHT22;42227;6.376;-10.782;2024-01-07T08:42:51;28.60;1.00
56322;DHT22;42227;6.376;-10.782;2024-01-07T08:45:19;29.00;1.00
56322;DHT22;42227;6.376;-10.782;2024-01-07T08:47:48;29.20;1.00
56322;DHT22;42227;6.376;-10.782;2024-01-07T08:50:16;29.30;99.90
56322;DHT22;42227;6.376;-10.782;2024-01-07T08:52:45;29.40;99.90
56322;DHT22;42227;6.376;-10.782;2024-01-07T08:55:13;29.20;1.00
56322;DHT22;42227;6.376;-10.782;2024-01-07T08:57:41;29.20;99.90
56322;DHT22;42227;6.376;-10.782;2024-01-07T09:00:10;29.50;99.90
56322;DHT22;42227;6.376;-10.782;2024-01-07T09:02:38;29.50;99.90
56322;DHT22;42227;6.376;-10.782;2024-01-07T09:05:10;29.50;99.90
56322;DHT22;42227;6.376;-10.782;2024-01-07T09:07:39;29.40;99.90
56322;DHT22;42227;6.376;-10.782;2024-01-07T09:10:07;29.70;99.90
56322;DHT22;42227;6.376;-10.782;2024-01-07T09:12:37;30.50;99.90
56322;DHT22;42227;6.376;-10.782;2024-01-07T09:15:06;30.90;26.40
56322;DHT22;42227;6.376;-10.782;2024-01-07T09:17:36;30.80;1.00
56322;DHT22;42227;6.376;-10.782;2024-01-07T09:20:07;30.80;1.00
56322;DHT22;42227;6.376;-10.782;2024-01-07T09:22:36;30.50;7.80
56322;DHT22;42227;6.376;-10.782;2024-01-07T09:25:07;31.20;1.00
56322;DHT22;42227;6.376;-10.782;2024-01-07T09:27:37;31.70;1.00
56322;DHT22;42227;6.376;-10.782;2024-01-07T09:30:06;31.80;1.00
56322;DHT22;42227;6.376;-10.782;2024-01-07T09:32:34;31.90;1.00
56322;DHT22;42227;6.376;-10.782;2024-01-07T09:35:05;31.50;1.00
56322;DHT22;42227;6.376;-10.782;2024-01-07T09:37:34;31.30;1.00
56322;DHT22;42227;6.376;-10.782;2024-01-07T09:40:03;31.50;1.00
56322;DHT22;42227;6.376;-10.782;2024-01-07T09:42:32;30.70;1.00
56322;DHT22;42227;6.376;-10.782;2024-01-07T09:45:03;30.40;1.00
56322;DHT22;42227;6.376;-10.782;2024-01-07T09:47:32;30.80;1.00
56322;DHT22;42227;6.376;-10.782;2024-01-07T09:50:00;30.70;1.00
56322;DHT22;42227;6.376;-10.782;2024-01-07T09:52:29;31.10;1.00
56322;DHT22;42227;6.376;-10.782;2024-01-07T09:55:00;31.20;1.00
56322;DHT22;42227;6.376;-10.782;2024-01-07T09:57:30;31.20;1.00
56322;DHT22;42227;6.376;-10.782;2024-01-07T10:00:00;31.20;1.00
56322;DHT22;42227;6.376;-10.782;2024-01-07T10:02:39;30.90;1.00
56322;DHT22;42227;6.376;-10.782;2024-01-07T10:05:07;31.30;1.00
56322;DHT22;42227;6.376;-10.782;2024-01-07T10:07:36;31.50;1.00
56322;DHT22;42227;6.376;-10.782;2024-01-07T10:10:17;31.00;1.00
56322;DHT22;42227;6.376;-10.782;2024-01-07T10:12:46;30.50;1.00
56322;DHT22;42227;6.376;-10.782;2024-01-07T10:15:17;30.70;1.00
56322;DHT22;42227;6.376;-10.782;2024-01-07T10:17:45;31.10;1.00
56322;DHT22;42227;6.376;-10.782;2024-01-07T10:20:16;31.00;1.00
56322;DHT22;42227;6.376;-10.782;2024-01-07T10:22:50;31.70;1.00
56322;DHT22;42227;6.376;-10.782;2024-01-07T10:25:21;31.60;1.00
56322;DHT22;42227;6.376;-10.782;2024-01-07T10:27:49;31.70;99.90
56322;DHT22;42227;6.376;-10.782;2024-01-07T10:30:18;31.90;99.90
56322;DHT22;42227;6.376;-10.782;2024-01-07T10:32:47;31.70;99.90
56322;DHT22;42227;6.376;-10.782;2024-01-07T10:35:18;31.90;99.90
56322;DHT22;42227;6.376;-10.782;2024-01-07T10:37:50;31.70;99.90
56322;DHT22;42227;6.376;-10.782;2024-01-07T10:40:18;31.80;99.90
56322;DHT22;42227;6.376;-10.782;2024-01-07T10:42:49;31.80;99.90
56322;DHT22;42227;6.376;-10.782;2024-01-07T10:45:18;31.70;99.90
56322;DHT22;42227;6.376;-10.782;2024-01-07T10:47:59;31.40;99.90
56322;DHT22;42227;6.376;-10.782;2024-01-07T10:50:28;31.20;99.90
56322;DHT22;42227;6.376;-10.782;2024-01-07T10:53:03;31.30;99.90
56322;DHT22;42227;6.376;-10.782;2024-01-07T10:55:34;31.70;99.90
56322;DHT22;42227;6.376;-10.782;2024-01-07T10:58:03;31.90;99.90
56322;DHT22;42227;6.376;-10.782;2024-01-07T11:00:33;31.50;99.90
56322;DHT22;42227;6.376;-10.782;2024-01-07T11:03:27;31.30;99.90
56322;DHT22;42227;6.376;-10.782;2024-01-07T11:06:29;31.20;99.90
56322;DHT22;42227;6.376;-10.782;2024-01-07T11:09:26;31.40;99.90
56322;DHT22;42227;6.376;-10.782;2024-01-07T11:11:51;31.30;99.90
56322;DHT22;42227;6.376;-10.782;2024-01-07T11:14:41;31.20;99.90
56322;DHT22;42227;6.376;-10.782;2024-01-07T11:17:10;31.30;99.90
56322;DHT22;42227;6.376;-10.782;2024-01-07T11:19:48;31.10;99.90
56322;DHT22;42227;6.376;-10.782;2024-01-07T11:22:27;31.30;99.90
56322;DHT22;42227;6.376;-10.782;2024-01-07T11:25:01;31.50;99.90
56322;DHT22;42227;6.376;-10.782;2024-01-07T11:27:31;32.00;99.90
56322;DHT22;42227;6.376;-10.782;2024-01-07T11:30:07;32.00;99.90
56322;DHT22;42227;6.376;-10.782;2024-01-07T11:32:41;32.10;99.90
56322;DHT22;42227;6.376;-10.782;2024-01-07T11:35:55;32.40;99.90
56322;DHT22;42227;6.376;-10.782;2024-01-07T11:38:24;32.30;99.90
56322;DHT22;42227;6.376;-10.782;2024-01-07T11:40:53;32.00;99.90
56322;DHT22;42227;6.376;-10.782;2024-01-07T11:43:23;31.90;99.90
56322;DHT22;42227;6.376;-10.782;2024-01-07T11:45:52;31.90;99.90
56322;DHT22;42227;6.376;-10.782;2024-01-07T11:48:22;32.10;99.90
56322;DHT22;42227;6.376;-10.782;2024-01-07T11:50:51;32.10;99.90
56322;DHT22;42227;6.376;-10.782;2024-01-07T11:53:24;32.40;99.90
56322;DHT22;42227;6.376;-10.782;2024-01-07T11:55:53;32.90;99.90
56322;DHT22;42227;6.376;-10.782;2024-01-07T11:58:22;33.20;99.90
56322;DHT22;42227;6.376;-10.782;2024-01-07T12:00:51;33.30;99.90
56322;DHT22;42227;6.376;-10.782;2024-01-07T12:03:20;33.20;99.90
56322;DHT22;42227;6.376;-10.782;2024-01-07T12:05:49;33.00;99.90
56322;DHT22;42227;6.376;-10.782;2024-01-07T12:08:18;33.00;99.90
56322;DHT22;42227;6.376;-10.782;2024-01-07T12:10:48;33.20;99.90
56322;DHT22;42227;6.376;-10.782;2024-01-07T12:13:17;33.20;95.90
56322;DHT22;42227;6.376;-10.782;2024-01-07T12:15:46;33.40;90.20
56322;DHT22;42227;6.376;-10.782;2024-01-07T12:18:15;33.20;99.90
56322;DHT22;42227;6.376;-10.782;2024-01-07T12:20:55;33.40;94.70
56322;DHT22;42227;6.376;-10.782;2024-01-07T12:23:25;33.40;90.80
56322;DHT22;42227;6.376;-10.782;2024-01-07T12:25:55;33.50;80.70
56322;DHT22;42227;6.376;-10.782;2024-01-07T12:28:35;33.60;74.90
56322;DHT22;42227;6.376;-10.782;2024-01-07T12:31:04;33.60;57.20
56322;DHT22;42227;6.376;-10.782;2024-01-07T12:33:34;33.40;65.90
56322;DHT22;42227;6.376;-10.782;2024-01-07T12:36:02;33.50;44.80
56322;DHT22;42227;6.376;-10.782;2024-01-07T12:38:31;33.50;37.80
56322;DHT22;42227;6.376;-10.782;2024-01-07T12:40:59;33.50;52.50
56322;DHT22;42227;6.376;-10.782;2024-01-07T12:43:28;33.00;77.30
56322;DHT22;42227;6.376;-10.782;2024-01-07T12:45:56;32.90;99.90
56322;DHT22;42227;6.376;-10.782;2024-01-07T12:48:25;32.80;99.90
56322;DHT22;42227;6.376;-10.782;2024-01-07T12:50:53;32.60;99.90
56322;DHT22;42227;6.376;-10.782;2024-01-07T12:53:22;32.40;99.90
56322;DHT22;42227;6.376;-10.782;2024-01-07T12:55:52;32.00;99.90
56322;DHT22;42227;6.376;-10.782;2024-01-07T12:58:20;31.90;99.90
56322;DHT22;42227;6.376;-10.782;2024-01-07T13:00:49;31.80;99.90
56322;DHT22;42227;6.376;-10.782;2024-01-07T13:03:17;31.80;99.90
56322;DHT22;42227;6.376;-10.782;2024-01-07T13:05:47;32.00;99.90
56322;DHT22;42227;6.376;-10.782;2024-01-07T13:08:15;32.10;99.90
56322;DHT22;42227;6.376;-10.782;2024-01-07T13:10:45;32.40;99.90
56322;DHT22;42227;6.376;-10.782;2024-01-07T13:13:14;32.70;99.90
56322;DHT22;42227;6.376;-10.782;2024-01-07T13:15:43;32.50;99.90
56322;DHT22;42227;6.376;-10.782;2024-01-07T13:18:12;32.60;99.90
56322;DHT22;42227;6.376;-10.782;2024-01-07T13:20:41;32.70;99.90
56322;DHT22;42227;6.376;-10.782;2024-01-07T13:23:09;32.50;99.90
56322;DHT22;42227;6.376;-10.782;2024-01-07T13:25:39;32.50;99.90
56322;DHT22;42227;6.376;-10.782;2024-01-07T13:28:07;32.50;99.90
56322;DHT22;42227;6.376;-10.782;2024-01-07T13:30:36;32.30;99.90
56322;DHT22;42227;6.376;-10.782;2024-01-07T13:33:04;32.70;99.90
56322;DHT22;42227;6.376;-10.782;2024-01-07T13:35:34;32.80;99.90
56322;DHT22;42227;6.376;-10.782;2024-01-07T13:38:03;32.50;99.90
56322;DHT22;42227;6.376;-10.782;2024-01-07T13:40:32;32.60;99.90
56322;DHT22;42227;6.376;-10.782;2024-01-07T13:43:00;32.80;99.90
56322;DHT22;42227;6.376;-10.782;2024-01-07T13:45:28;32.90;99.90
56322;DHT22;42227;6.376;-10.782;2024-01-07T13:47:57;33.20;99.90
56322;DHT22;42227;6.376;-10.782;2024-01-07T13:50:26;33.10;99.90
56322;DHT22;42227;6.376;-10.782;2024-01-07T13:52:54;33.00;99.90
56322;DHT22;42227;6.376;-10.782;2024-01-07T13:55:23;33.00;99.90
56322;DHT22;42227;6.376;-10.782;2024-01-07T13:57:52;32.80;99.90
56322;DHT22;42227;6.376;-10.782;2024-01-07T14:00:21;32.90;99.90
56322;DHT22;42227;6.376;-10.782;2024-01-07T14:02:50;32.80;99.90
56322;DHT22;42227;6.376;-10.782;2024-01-07T14:05:18;32.90;99.90
56322;DHT22;42227;6.376;-10.782;2024-01-07T14:07:47;33.10;99.90
56322;DHT22;42227;6.376;-10.782;2024-01-07T14:10:17;33.20;99.90
56322;DHT22;42227;6.376;-10.782;2024-01-07T14:12:46;33.20;99.90
56322;DHT22;42227;6.376;-10.782;2024-01-07T14:15:15;33.20;99.90
56322;DHT22;42227;6.376;-10.782;2024-01-07T14:17:43;33.00;99.90
56322;DHT22;42227;6.376;-10.782;2024-01-07T14:20:12;32.90;99.90
56322;DHT22;42227;6.376;-10.782;2024-01-07T14:22:40;33.10;99.90
56322;DHT22;42227;6.376;-10.782;2024-01-07T14:25:09;33.00;99.90
56322;DHT22;42227;6.376;-10.782;2024-01-07T14:27:37;33.20;99.90
56322;DHT22;42227;6.376;-10.782;2024-01-07T14:30:06;33.40;99.90
56322;DHT22;42227;6.376;-10.782;2024-01-07T14:32:35;33.30;99.90
56322;DHT22;42227;6.376;-10.782;2024-01-07T14:35:03;33.50;99.90
56322;DHT22;42227;6.376;-10.782;2024-01-07T14:37:32;33.10;99.90
56322;DHT22;42227;6.376;-10.782;2024-01-07T14:40:00;33.10;99.90
56322;DHT22;42227;6.376;-10.782;2024-01-07T14:42:29;33.10;99.90
56322;DHT22;42227;6.376;-10.782;2024-01-07T14:44:57;33.10;99.90
56322;DHT22;42227;6.376;-10.782;2024-01-07T14:47:25;33.00;99.90
56322;DHT22;42227;6.376;-10.782;2024-01-07T14:49:54;33.00;99.90
56322;DHT22;42227;6.376;-10.782;2024-01-07T14:52:22;33.00;99.90
56322;DHT22;42227;6.376;-10.782;2024-01-07T14:54:51;33.00;99.90
56322;DHT22;42227;6.376;-10.782;2024-01-07T14:57:19;33.10;99.90
56322;DHT22;42227;6.376;-10.782;2024-01-07T14:59:48;33.30;99.90
56322;DHT22;42227;6.376;-10.782;2024-01-07T15:02:17;33.10;99.90
56322;DHT22;42227;6.376;-10.782;2024-01-07T15:04:46;33.10;99.90
56322;DHT22;42227;6.376;-10.782;2024-01-07T15:07:15;33.00;99.90
56322;DHT22;42227;6.376;-10.782;2024-01-07T15:09:45;33.30;99.90
56322;DHT22;42227;6.376;-10.782;2024-01-07T15:12:13;33.40;99.90
56322;DHT22;42227;6.376;-10.782;2024-01-07T15:14:41;33.20;99.90
56322;DHT22;42227;6.376;-10.782;2024-01-07T15:17:10;33.30;99.90
56322;DHT22;42227;6.376;-10.782;2024-01-07T15:19:39;33.30;99.90
56322;DHT22;42227;6.376;-10.782;2024-01-07T15:22:07;33.30;99.90
56322;DHT22;42227;6.376;-10.782;2024-01-07T15:24:36;33.30;99.90
56322;DHT22;42227;6.376;-10.782;2024-01-07T15:27:04;33.30;99.90
56322;DHT22;42227;6.376;-10.782;2024-01-07T15:29:32;33.10;99.90
56322;DHT22;42227;6.376;-10.782;2024-01-07T15:32:01;33.10;99.90
56322;DHT22;42227;6.376;-10.782;2024-01-07T15:34:29;32.90;99.90